sensor_id;sensor_type;location;lat;lon;timestamp;P1;durP1;ratioP1;P2;durP2;ratioP2
18190;SDS011;47004;51.366;12.348;2023-05-07T00:01:23;9.33;;;5.87;;
18190;SDS011;47004;51.366;12.348;2023-05-07T00:03:26;8.33;;;5.63;;
18190;SDS011;47004;51.366;12.348;2023-05-07T00:05:28;9.00;;;5.77;;
18190;SDS011;47004;51.366;12.348;2023-05-07T00:07:30;7.33;;;5.23;;
18190;SDS011;47004;51.366;12.348;2023-05-07T00:09:32;8.23;;;5.23;;
18190;SDS011;47004;51.366;12.348;2023-05-07T00:11:34;9.90;;;5.90;;
18190;SDS011;47004;51.366;12.348;2023-05-07T00:13:39;10.20;;;5.63;;
18190;SDS011;47004;51.366;12.348;2023-05-07T00:15:42;9.93;;;5.50;;
18190;SDS011;47004;51.366;12.348;2023-05-07T00:17:44;9.00;;;6.00;;
18190;SDS011;47004;51.366;12.348;2023-05-07T00:19:46;10.07;;;5.67;;
18190;SDS011;47004;51.366;12.348;2023-05-07T00:21:48;9.03;;;5.83;;
18190;SDS011;47004;51.366;12.348;2023-05-07T00:23:49;7.70;;;5.17;;
18190;SDS011;47004;51.366;12.348;2023-05-07T00:25:51;9.20;;;5.97;;
18190;SDS011;47004;51.366;12.348;2023-05-07T00:27:53;12.63;;;6.10;;
18190;SDS011;47004;51.366;12.348;2023-05-07T00:29:55;8.47;;;5.53;;
18190;SDS011;47004;51.366;12.348;2023-05-07T00:31:57;9.03;;;5.50;;
18190;SDS011;47004;51.366;12.348;2023-05-07T00:33:59;8.27;;;5.37;;
18190;SDS011;47004;51.366;12.348;2023-05-07T00:36:01;10.60;;;6.20;;
18190;SDS011;47004;51.366;12.348;2023-05-07T00:38:03;9.60;;;6.03;;
18190;SDS011;47004;51.366;12.348;2023-05-07T00:40:06;8.90;;;5.90;;
18190;SDS011;47004;51.366;12.348;2023-05-07T00:42:08;9.00;;;6.07;;
18190;SDS011;47004;51.366;12.348;2023-05-07T00:44:10;8.10;;;5.73;;
18190;SDS011;47004;51.366;12.348;2023-05-07T00:46:13;11.57;;;5.90;;
18190;SDS011;47004;51.366;12.348;2023-05-07T00:48:17;9.57;;;6.20;;
18190;SDS011;47004;51.366;12.348;2023-05-07T00:50:19;9.83;;;6.10;;
18190;SDS011;47004;51.366;12.348;2023-05-07T00:52:22;9.90;;;6.07;;
18190;SDS011;47004;51.366;12.348;2023-05-07T00:54:26;8.97;;;5.57;;
18190;SDS011;47004;51.366;12.348;2023-05-07T00:56:28;9.80;;;5.93;;
18190;SDS011;47004;51.366;12.348;2023-05-07T00:58:31;10.33;;;5.97;;
18190;SDS011;47004;51.366;12.348;2023-05-07T01:00:33;7.83;;;5.40;;
18190;SDS011;47004;51.366;12.348;2023-05-07T01:02:35;10.33;;;5.73;;
18190;SDS011;47004;51.366;12.348;2023-05-07T01:04:39;9.83;;;5.97;;
18190;SDS011;47004;51.366;12.348;2023-05-07T01:06:41;8.33;;;5.60;;
18190;SDS011;47004;51.366;12.348;2023-05-07T01:08:43;8.20;;;5.53;;
18190;SDS011;47004;51.366;12.348;2023-05-07T01:10:45;9.87;;;5.80;;
18190;SDS011;47004;51.366;12.348;2023-05-07T01:12:48;9.37;;;6.43;;
18190;SDS011;47004;51.366;12.348;2023-05-07T01:14:50;9.87;;;6.37;;
18190;SDS011;47004;51.366;12.348;2023-05-07T01:16:53;11.37;;;6.50;;
18190;SDS011;47004;51.366;12.348;2023-05-07T01:18:55;11.33;;;7.17;;
18190;SDS011;47004;51.366;12.348;2023-05-07T01:20:58;9.00;;;6.00;;
18190;SDS011;47004;51.366;12.348;2023-05-07T01:23:04;10.43;;;6.77;;
18190;SDS011;47004;51.366;12.348;2023-05-07T01:25:08;11.63;;;7.40;;
18190;SDS011;47004;51.366;12.348;2023-05-07T01:27:10;12.17;;;6.60;;
18190;SDS011;47004;51.366;12.348;2023-05-07T01:29:12;9.10;;;6.07;;
18190;SDS011;47004;51.366;12.348;2023-05-07T01:31:14;9.37;;;6.63;;
18190;SDS011;47004;51.366;12.348;2023-05-07T01:33:18;11.97;;;6.90;;
18190;SDS011;47004;51.366;12.348;2023-05-07T01:35:22;11.07;;;6.93;;
18190;SDS011;47004;51.366;12.348;2023-05-07T01:37:27;11.43;;;6.80;;
18190;SDS011;47004;51.366;12.348;2023-05-07T01:39:31;10.87;;;6.80;;
18190;SDS011;47004;51.366;12.348;2023-05-07T01:41:34;11.90;;;6.93;;
18190;SDS011;47004;51.366;12.348;2023-05-07T01:43:36;10.97;;;6.73;;
18190;SDS011;47004;51.366;12.348;2023-05-07T01:45:38;11.57;;;7.43;;
18190;SDS011;47004;51.366;12.348;2023-05-07T01:47:41;10.93;;;7.27;;
18190;SDS011;47004;51.366;12.348;2023-05-07T01:49:44;11.17;;;7.50;;
18190;SDS011;47004;51.366;12.348;2023-05-07T01:51:45;12.37;;;7.50;;
18190;SDS011;47004;51.366;12.348;2023-05-07T01:53:48;11.83;;;8.03;;
18190;SDS011;47004;51.366;12.348;2023-05-07T01:55:52;12.27;;;8.23;;
18190;SDS011;47004;51.366;12.348;2023-05-07T01:57:54;13.63;;;8.60;;
18190;SDS011;47004;51.366;12.348;2023-05-07T01:59:56;13.33;;;8.97;;
18190;SDS011;47004;51.366;12.348;2023-05-07T02:01:58;14.90;;;9.57;;
18190;SDS011;47004;51.366;12.348;2023-05-07T02:04:00;14.03;;;8.60;;
18190;SDS011;47004;51.366;12.348;2023-05-07T02:06:02;17.20;;;9.70;;
18190;SDS011;47004;51.366;12.348;2023-05-07T02:08:04;14.63;;;9.17;;
18190;SDS011;47004;51.366;12.348;2023-05-07T02:10:06;15.37;;;9.47;;
18190;SDS011;47004;51.366;12.348;2023-05-07T02:12:10;14.57;;;9.50;;
18190;SDS011;47004;51.366;12.348;2023-05-07T02:14:12;14.23;;;9.20;;
18190;SDS011;47004;51.366;12.348;2023-05-07T02:16:14;13.97;;;9.53;;
18190;SDS011;47004;51.366;12.348;2023-05-07T02:18:16;14.07;;;9.43;;
18190;SDS011;47004;51.366;12.348;2023-05-07T02:20:18;14.00;;;9.03;;
18190;SDS011;47004;51.366;12.348;2023-05-07T02:22:20;14.23;;;9.63;;
18190;SDS011;47004;51.366;12.348;2023-05-07T02:24:22;14.83;;;9.93;;
18190;SDS011;47004;51.366;12.348;2023-05-07T02:26:24;15.53;;;9.40;;
18190;SDS011;47004;51.366;12.348;2023-05-07T02:28:27;14.47;;;9.70;;
18190;SDS011;47004;51.366;12.348;2023-05-07T02:30:29;14.93;;;9.33;;
18190;SDS011;47004;51.366;12.348;2023-05-07T02:32:31;15.97;;;10.13;;
18190;SDS011;47004;51.366;12.348;2023-05-07T02:34:32;13.73;;;9.13;;
18190;SDS011;47004;51.366;12.348;2023-05-07T02:36:34;15.40;;;9.80;;
18190;SDS011;47004;51.366;12.348;2023-05-07T02:38:36;15.90;;;9.40;;
18190;SDS011;47004;51.366;12.348;2023-05-07T02:40:38;17.30;;;9.57;;
18190;SDS011;47004;51.366;12.348;2023-05-07T02:42:40;14.03;;;8.90;;
18190;SDS011;47004;51.366;12.348;2023-05-07T02:44:44;14.13;;;9.33;;
18190;SDS011;47004;51.366;12.348;2023-05-07T02:46:45;14.60;;;9.53;;
18190;SDS011;47004;51.366;12.348;2023-05-07T02:48:47;13.13;;;8.70;;
18190;SDS011;47004;51.366;12.348;2023-05-07T02:50:49;12.87;;;8.83;;
18190;SDS011;47004;51.366;12.348;2023-05-07T02:52:51;12.63;;;8.47;;
18190;SDS011;47004;51.366;12.348;2023-05-07T02:54:53;13.63;;;9.43;;
18190;SDS011;47004;51.366;12.348;2023-05-07T02:56:55;14.73;;;9.33;;
18190;SDS011;47004;51.366;12.348;2023-05-07T02:58:57;14.03;;;8.40;;
18190;SDS011;47004;51.366;12.348;2023-05-07T03:01:00;14.27;;;8.33;;
18190;SDS011;47004;51.366;12.348;2023-05-07T03:03:02;12.67;;;8.53;;
18190;SDS011;47004;51.366;12.348;2023-05-07T03:05:04;14.83;;;9.30;;
18190;SDS011;47004;51.366;12.348;2023-05-07T03:07:07;12.57;;;8.53;;
18190;SDS011;47004;51.366;12.348;2023-05-07T03:09:09;12.93;;;8.97;;
18190;SDS011;47004;51.366;12.348;2023-05-07T03:11:11;13.73;;;8.93;;
18190;SDS011;47004;51.366;12.348;2023-05-07T03:13:13;13.50;;;9.07;;
18190;SDS011;47004;51.366;12.348;2023-05-07T03:15:15;14.33;;;9.17;;
18190;SDS011;47004;51.366;12.348;2023-05-07T03:17:18;12.70;;;8.63;;
18190;SDS011;47004;51.366;12.348;2023-05-07T03:19:21;15.30;;;8.87;;
18190;SDS011;47004;51.366;12.348;2023-05-07T03:21:23;14.97;;;9.67;;
18190;SDS011;47004;51.366;12.348;2023-05-07T03:23:26;13.07;;;9.47;;
18190;SDS011;47004;51.366;12.348;2023-05-07T03:25:28;15.50;;;9.27;;
18190;SDS011;47004;51.366;12.348;2023-05-07T03:27:31;14.57;;;9.67;;
18190;SDS011;47004;51.366;12.348;2023-05-07T03:29:32;14.07;;;9.20;;
18190;SDS011;47004;51.366;12.348;2023-05-07T03:31:34;14.37;;;8.93;;
18190;SDS011;47004;51.366;12.348;2023-05-07T03:33:38;15.10;;;9.53;;
18190;SDS011;47004;51.366;12.348;2023-05-07T03:35:51;12.73;;;9.00;;
18190;SDS011;47004;51.366;12.348;2023-05-07T03:37:52;12.90;;;8.60;;
18190;SDS011;47004;51.366;12.348;2023-05-07T03:39:54;13.00;;;8.83;;
18190;SDS011;47004;51.366;12.348;2023-05-07T03:41:56;14.13;;;8.80;;
18190;SDS011;47004;51.366;12.348;2023-05-07T03:43:59;13.77;;;9.33;;
18190;SDS011;47004;51.366;12.348;2023-05-07T03:46:00;14.70;;;9.40;;
18190;SDS011;47004;51.366;12.348;2023-05-07T03:48:03;12.33;;;9.13;;
18190;SDS011;47004;51.366;12.348;2023-05-07T03:50:07;14.03;;;9.13;;
18190;SDS011;47004;51.366;12.348;2023-05-07T03:52:11;13.73;;;9.57;;
18190;SDS011;47004;51.366;12.348;2023-05-07T03:54:13;13.67;;;9.00;;
18190;SDS011;47004;51.366;12.348;2023-05-07T03:56:15;13.10;;;8.93;;
18190;SDS011;47004;51.366;12.348;2023-05-07T03:58:18;15.67;;;9.63;;
18190;SDS011;47004;51.366;12.348;2023-05-07T04:00:20;13.67;;;8.67;;
18190;SDS011;47004;51.366;12.348;2023-05-07T04:02:22;15.57;;;9.30;;
18190;SDS011;47004;51.366;12.348;2023-05-07T04:04:24;16.17;;;10.03;;
18190;SDS011;47004;51.366;12.348;2023-05-07T04:06:27;14.77;;;9.83;;
18190;SDS011;47004;51.366;12.348;2023-05-07T04:08:29;14.73;;;9.60;;
18190;SDS011;47004;51.366;12.348;2023-05-07T04:10:31;14.47;;;9.10;;
18190;SDS011;47004;51.366;12.348;2023-05-07T04:12:33;15.10;;;9.23;;
18190;SDS011;47004;51.366;12.348;2023-05-07T04:14:35;14.30;;;9.00;;
18190;SDS011;47004;51.366;12.348;2023-05-07T04:16:37;17.63;;;9.27;;
18190;SDS011;47004;51.366;12.348;2023-05-07T04:18:39;15.67;;;9.97;;
18190;SDS011;47004;51.366;12.348;2023-05-07T04:20:40;16.73;;;9.37;;
18190;SDS011;47004;51.366;12.348;2023-05-07T04:22:44;14.10;;;8.73;;
18190;SDS011;47004;51.366;12.348;2023-05-07T04:24:46;15.50;;;8.57;;
18190;SDS011;47004;51.366;12.348;2023-05-07T04:26:47;15.43;;;9.70;;
18190;SDS011;47004;51.366;12.348;2023-05-07T04:28:51;15.20;;;9.00;;
18190;SDS011;47004;51.366;12.348;2023-05-07T04:30:53;15.43;;;9.97;;
18190;SDS011;47004;51.366;12.348;2023-05-07T04:32:55;16.07;;;10.07;;
18190;SDS011;47004;51.366;12.348;2023-05-07T04:34:57;15.97;;;9.90;;
18190;SDS011;47004;51.366;12.348;2023-05-07T04:36:58;15.37;;;8.80;;
18190;SDS011;47004;51.366;12.348;2023-05-07T04:39:03;14.90;;;9.63;;
18190;SDS011;47004;51.366;12.348;2023-05-07T04:41:05;16.20;;;9.53;;
18190;SDS011;47004;51.366;12.348;2023-05-07T04:43:07;17.13;;;10.40;;
18190;SDS011;47004;51.366;12.348;2023-05-07T04:45:09;15.20;;;9.77;;
18190;SDS011;47004;51.366;12.348;2023-05-07T04:47:12;15.83;;;9.17;;
18190;SDS011;47004;51.366;12.348;2023-05-07T04:49:14;15.67;;;9.30;;
18190;SDS011;47004;51.366;12.348;2023-05-07T04:51:16;16.37;;;9.83;;
18190;SDS011;47004;51.366;12.348;2023-05-07T04:53:18;13.83;;;8.63;;
18190;SDS011;47004;51.366;12.348;2023-05-07T04:55:21;17.13;;;9.60;;
18190;SDS011;47004;51.366;12.348;2023-05-07T04:57:23;16.10;;;9.07;;
18190;SDS011;47004;51.366;12.348;2023-05-07T04:59:25;14.80;;;8.90;;
18190;SDS011;47004;51.366;12.348;2023-05-07T05:01:27;16.27;;;9.47;;
18190;SDS011;47004;51.366;12.348;2023-05-07T05:03:29;13.77;;;8.60;;
18190;SDS011;47004;51.366;12.348;2023-05-07T05:05:31;15.40;;;9.30;;
18190;SDS011;47004;51.366;12.348;2023-05-07T05:07:33;13.47;;;8.50;;
18190;SDS011;47004;51.366;12.348;2023-05-07T05:09:34;13.20;;;8.40;;
18190;SDS011;47004;51.366;12.348;2023-05-07T05:11:38;13.07;;;8.40;;
18190;SDS011;47004;51.366;12.348;2023-05-07T05:13:40;14.17;;;8.93;;
18190;SDS011;47004;51.366;12.348;2023-05-07T05:15:42;13.50;;;8.87;;
18190;SDS011;47004;51.366;12.348;2023-05-07T05:17:44;15.43;;;9.17;;
18190;SDS011;47004;51.366;12.348;2023-05-07T05:19:46;15.83;;;9.27;;
18190;SDS011;47004;51.366;12.348;2023-05-07T05:21:48;13.30;;;8.03;;
18190;SDS011;47004;51.366;12.348;2023-05-07T05:23:50;13.50;;;8.17;;
18190;SDS011;47004;51.366;12.348;2023-05-07T05:25:55;11.27;;;7.50;;
18190;SDS011;47004;51.366;12.348;2023-05-07T05:27:58;16.70;;;8.47;;
18190;SDS011;47004;51.366;12.348;2023-05-07T05:30:01;13.20;;;8.80;;
18190;SDS011;47004;51.366;12.348;2023-05-07T05:32:03;11.80;;;7.67;;
18190;SDS011;47004;51.366;12.348;2023-05-07T05:34:05;12.77;;;8.07;;
18190;SDS011;47004;51.366;12.348;2023-05-07T05:36:09;12.20;;;7.87;;
18190;SDS011;47004;51.366;12.348;2023-05-07T05:38:12;11.57;;;8.00;;
18190;SDS011;47004;51.366;12.348;2023-05-07T05:40:14;12.50;;;7.93;;
18190;SDS011;47004;51.366;12.348;2023-05-07T05:42:16;11.87;;;7.70;;
18190;SDS011;47004;51.366;12.348;2023-05-07T05:44:19;10.70;;;7.13;;
18190;SDS011;47004;51.366;12.348;2023-05-07T05:46:21;11.63;;;7.47;;
18190;SDS011;47004;51.366;12.348;2023-05-07T05:48:23;11.70;;;7.60;;
18190;SDS011;47004;51.366;12.348;2023-05-07T05:50:25;13.00;;;8.10;;
18190;SDS011;47004;51.366;12.348;2023-05-07T05:52:27;11.47;;;7.17;;
18190;SDS011;47004;51.366;12.348;2023-05-07T05:54:29;12.00;;;7.23;;
18190;SDS011;47004;51.366;12.348;2023-05-07T05:56:30;12.13;;;6.93;;
18190;SDS011;47004;51.366;12.348;2023-05-07T05:58:32;12.43;;;7.10;;
18190;SDS011;47004;51.366;12.348;2023-05-07T06:00:35;9.93;;;6.77;;
18190;SDS011;47004;51.366;12.348;2023-05-07T06:02:37;9.77;;;6.53;;
18190;SDS011;47004;51.366;12.348;2023-05-07T06:04:39;7.93;;;5.67;;
18190;SDS011;47004;51.366;12.348;2023-05-07T06:06:42;10.33;;;6.30;;
18190;SDS011;47004;51.366;12.348;2023-05-07T06:08:44;8.60;;;6.03;;
18190;SDS011;47004;51.366;12.348;2023-05-07T06:10:46;9.37;;;6.60;;
18190;SDS011;47004;51.366;12.348;2023-05-07T06:12:48;10.27;;;6.57;;
18190;SDS011;47004;51.366;12.348;2023-05-07T06:14:49;11.33;;;6.93;;
18190;SDS011;47004;51.366;12.348;2023-05-07T06:16:53;10.97;;;6.40;;
18190;SDS011;47004;51.366;12.348;2023-05-07T06:18:55;10.40;;;6.40;;
18190;SDS011;47004;51.366;12.348;2023-05-07T06:20:57;10.70;;;6.90;;
18190;SDS011;47004;51.366;12.348;2023-05-07T06:22:59;14.07;;;7.47;;
18190;SDS011;47004;51.366;12.348;2023-05-07T06:25:00;12.40;;;7.13;;
18190;SDS011;47004;51.366;12.348;2023-05-07T06:27:02;10.63;;;6.60;;
18190;SDS011;47004;51.366;12.348;2023-05-07T06:29:04;10.30;;;6.97;;
18190;SDS011;47004;51.366;12.348;2023-05-07T06:31:13;10.60;;;7.30;;
18190;SDS011;47004;51.366;12.348;2023-05-07T06:33:17;12.57;;;7.43;;
18190;SDS011;47004;51.366;12.348;2023-05-07T06:35:20;11.87;;;7.23;;
18190;SDS011;47004;51.366;12.348;2023-05-07T06:37:22;11.00;;;7.20;;
18190;SDS011;47004;51.366;12.348;2023-05-07T06:39:23;11.53;;;7.27;;
18190;SDS011;47004;51.366;12.348;2023-05-07T06:41:25;11.27;;;7.43;;
18190;SDS011;47004;51.366;12.348;2023-05-07T06:43:27;12.80;;;8.13;;
18190;SDS011;47004;51.366;12.348;2023-05-07T06:45:29;12.87;;;8.20;;
18190;SDS011;47004;51.366;12.348;2023-05-07T06:47:31;12.60;;;7.70;;
18190;SDS011;47004;51.366;12.348;2023-05-07T06:49:34;13.47;;;8.27;;
18190;SDS011;47004;51.366;12.348;2023-05-07T06:51:36;12.77;;;8.40;;
18190;SDS011;47004;51.366;12.348;2023-05-07T06:53:38;13.80;;;7.70;;
18190;SDS011;47004;51.366;12.348;2023-05-07T06:55:40;12.80;;;8.20;;
18190;SDS011;47004;51.366;12.348;2023-05-07T06:57:42;11.77;;;7.33;;
18190;SDS011;47004;51.366;12.348;2023-05-07T06:59:44;12.50;;;7.53;;
18190;SDS011;47004;51.366;12.348;2023-05-07T07:01:46;10.37;;;7.20;;
18190;SDS011;47004;51.366;12.348;2023-05-07T07:03:48;11.13;;;6.73;;
18190;SDS011;47004;51.366;12.348;2023-05-07T07:05:52;10.50;;;6.80;;
18190;SDS011;47004;51.366;12.348;2023-05-07T07:07:54;10.17;;;7.13;;
18190;SDS011;47004;51.366;12.348;2023-05-07T07:09:56;11.80;;;7.43;;
18190;SDS011;47004;51.366;12.348;2023-05-07T07:11:58;10.17;;;6.73;;
18190;SDS011;47004;51.366;12.348;2023-05-07T07:14:00;11.20;;;7.40;;
18190;SDS011;47004;51.366;12.348;2023-05-07T07:16:02;11.00;;;6.83;;
18190;SDS011;47004;51.366;12.348;2023-05-07T07:18:04;10.30;;;6.33;;
18190;SDS011;47004;51.366;12.348;2023-05-07T07:20:07;11.57;;;7.07;;
18190;SDS011;47004;51.366;12.348;2023-05-07T07:22:10;10.60;;;7.07;;
18190;SDS011;47004;51.366;12.348;2023-05-07T07:24:12;8.43;;;6.23;;
18190;SDS011;47004;51.366;12.348;2023-05-07T07:26:19;11.17;;;7.30;;
18190;SDS011;47004;51.366;12.348;2023-05-07T07:28:21;9.57;;;6.07;;
18190;SDS011;47004;51.366;12.348;2023-05-07T07:30:23;9.70;;;5.57;;
18190;SDS011;47004;51.366;12.348;2023-05-07T07:32:26;8.23;;;5.57;;
18190;SDS011;47004;51.366;12.348;2023-05-07T07:34:28;8.40;;;5.77;;
18190;SDS011;47004;51.366;12.348;2023-05-07T07:36:30;8.37;;;5.60;;
18190;SDS011;47004;51.366;12.348;2023-05-07T07:38:33;8.60;;;5.80;;
18190;SDS011;47004;51.366;12.348;2023-05-07T07:40:35;7.90;;;5.40;;
18190;SDS011;47004;51.366;12.348;2023-05-07T07:42:37;9.87;;;5.80;;
18190;SDS011;47004;51.366;12.348;2023-05-07T07:44:39;9.43;;;5.60;;
18190;SDS011;47004;51.366;12.348;2023-05-07T07:46:41;8.63;;;5.73;;
18190;SDS011;47004;51.366;12.348;2023-05-07T07:48:42;8.23;;;5.90;;
18190;SDS011;47004;51.366;12.348;2023-05-07T07:50:44;8.93;;;5.10;;
18190;SDS011;47004;51.366;12.348;2023-05-07T07:52:49;8.77;;;5.07;;
18190;SDS011;47004;51.366;12.348;2023-05-07T07:54:52;7.93;;;5.20;;
18190;SDS011;47004;51.366;12.348;2023-05-07T07:56:54;7.83;;;5.47;;
18190;SDS011;47004;51.366;12.348;2023-05-07T07:58:56;6.57;;;5.17;;
18190;SDS011;47004;51.366;12.348;2023-05-07T08:00:58;7.20;;;5.33;;
18190;SDS011;47004;51.366;12.348;2023-05-07T08:03:00;9.13;;;5.57;;
18190;SDS011;47004;51.366;12.348;2023-05-07T08:05:03;7.20;;;4.73;;
18190;SDS011;47004;51.366;12.348;2023-05-07T08:07:05;7.50;;;4.90;;
18190;SDS011;47004;51.366;12.348;2023-05-07T08:09:07;6.63;;;4.90;;
18190;SDS011;47004;51.366;12.348;2023-05-07T08:11:10;7.67;;;5.47;;
18190;SDS011;47004;51.366;12.348;2023-05-07T08:13:12;6.83;;;4.50;;
18190;SDS011;47004;51.366;12.348;2023-05-07T08:15:14;5.83;;;4.10;;
18190;SDS011;47004;51.366;12.348;2023-05-07T08:17:16;5.50;;;4.30;;
18190;SDS011;47004;51.366;12.348;2023-05-07T08:19:18;6.30;;;3.90;;
18190;SDS011;47004;51.366;12.348;2023-05-07T08:21:21;4.83;;;3.70;;
18190;SDS011;47004;51.366;12.348;2023-05-07T08:23:23;6.40;;;4.50;;
18190;SDS011;47004;51.366;12.348;2023-05-07T08:25:25;5.77;;;3.97;;
18190;SDS011;47004;51.366;12.348;2023-05-07T08:27:28;6.10;;;4.13;;
18190;SDS011;47004;51.366;12.348;2023-05-07T08:29:30;5.93;;;4.40;;
18190;SDS011;47004;51.366;12.348;2023-05-07T08:31:32;5.97;;;4.20;;
18190;SDS011;47004;51.366;12.348;2023-05-07T08:33:34;5.00;;;3.60;;
18190;SDS011;47004;51.366;12.348;2023-05-07T08:35:36;5.07;;;3.83;;
18190;SDS011;47004;51.366;12.348;2023-05-07T08:37:38;5.00;;;3.80;;
18190;SDS011;47004;51.366;12.348;2023-05-07T08:39:44;5.10;;;3.30;;
18190;SDS011;47004;51.366;12.348;2023-05-07T08:41:46;4.43;;;3.50;;
18190;SDS011;47004;51.366;12.348;2023-05-07T08:43:53;5.13;;;4.10;;
18190;SDS011;47004;51.366;12.348;2023-05-07T08:46:00;6.63;;;3.90;;
18190;SDS011;47004;51.366;12.348;2023-05-07T08:48:03;5.47;;;3.80;;
18190;SDS011;47004;51.366;12.348;2023-05-07T08:50:10;4.70;;;3.57;;
18190;SDS011;47004;51.366;12.348;2023-05-07T08:52:12;5.40;;;4.00;;
18190;SDS011;47004;51.366;12.348;2023-05-07T08:54:15;5.00;;;3.60;;
18190;SDS011;47004;51.366;12.348;2023-05-07T08:56:17;5.30;;;4.03;;
18190;SDS011;47004;51.366;12.348;2023-05-07T08:58:20;6.27;;;4.17;;
18190;SDS011;47004;51.366;12.348;2023-05-07T09:00:23;4.87;;;3.97;;
18190;SDS011;47004;51.366;12.348;2023-05-07T09:02:25;4.90;;;3.60;;
18190;SDS011;47004;51.366;12.348;2023-05-07T09:04:27;6.03;;;4.40;;
18190;SDS011;47004;51.366;12.348;2023-05-07T09:06:31;5.03;;;4.20;;
18190;SDS011;47004;51.366;12.348;2023-05-07T09:08:33;6.67;;;4.50;;
18190;SDS011;47004;51.366;12.348;2023-05-07T09:10:36;5.80;;;4.30;;
18190;SDS011;47004;51.366;12.348;2023-05-07T09:12:38;7.80;;;4.67;;
18190;SDS011;47004;51.366;12.348;2023-05-07T09:14:40;6.80;;;4.63;;
18190;SDS011;47004;51.366;12.348;2023-05-07T09:16:44;5.60;;;4.40;;
18190;SDS011;47004;51.366;12.348;2023-05-07T09:18:48;5.43;;;4.43;;
18190;SDS011;47004;51.366;12.348;2023-05-07T09:20:53;6.10;;;4.30;;
18190;SDS011;47004;51.366;12.348;2023-05-07T09:22:56;6.07;;;4.57;;
18190;SDS011;47004;51.366;12.348;2023-05-07T09:24:58;5.90;;;4.40;;
18190;SDS011;47004;51.366;12.348;2023-05-07T09:27:00;6.80;;;4.50;;
18190;SDS011;47004;51.366;12.348;2023-05-07T09:29:02;6.63;;;4.50;;
18190;SDS011;47004;51.366;12.348;2023-05-07T09:31:04;6.27;;;4.20;;
18190;SDS011;47004;51.366;12.348;2023-05-07T09:33:07;6.57;;;4.43;;
18190;SDS011;47004;51.366;12.348;2023-05-07T09:35:14;5.93;;;4.43;;
18190;SDS011;47004;51.366;12.348;2023-05-07T09:37:17;6.60;;;4.07;;
18190;SDS011;47004;51.366;12.348;2023-05-07T09:39:19;6.03;;;4.17;;
18190;SDS011;47004;51.366;12.348;2023-05-07T09:41:21;6.03;;;4.60;;
18190;SDS011;47004;51.366;12.348;2023-05-07T09:43:22;6.93;;;4.47;;
18190;SDS011;47004;51.366;12.348;2023-05-07T09:45:24;7.67;;;5.00;;
18190;SDS011;47004;51.366;12.348;2023-05-07T09:47:27;5.77;;;4.50;;
18190;SDS011;47004;51.366;12.348;2023-05-07T09:49:35;5.83;;;4.53;;
18190;SDS011;47004;51.366;12.348;2023-05-07T09:51:43;6.37;;;4.70;;
18190;SDS011;47004;51.366;12.348;2023-05-07T09:53:48;6.33;;;4.50;;
18190;SDS011;47004;51.366;12.348;2023-05-07T09:55:53;7.17;;;4.80;;
18190;SDS011;47004;51.366;12.348;2023-05-07T09:57:56;9.03;;;5.73;;
18190;SDS011;47004;51.366;12.348;2023-05-07T09:59:59;7.83;;;4.77;;
18190;SDS011;47004;51.366;12.348;2023-05-07T10:02:04;6.90;;;4.80;;
18190;SDS011;47004;51.366;12.348;2023-05-07T10:04:06;7.90;;;4.70;;
18190;SDS011;47004;51.366;12.348;2023-05-07T10:06:09;7.63;;;5.10;;
18190;SDS011;47004;51.366;12.348;2023-05-07T10:08:13;5.70;;;4.33;;
18190;SDS011;47004;51.366;12.348;2023-05-07T10:10:17;5.33;;;4.00;;
18190;SDS011;47004;51.366;12.348;2023-05-07T10:12:19;6.20;;;4.60;;
18190;SDS011;47004;51.366;12.348;2023-05-07T10:14:25;8.00;;;4.47;;
18190;SDS011;47004;51.366;12.348;2023-05-07T10:16:29;6.17;;;4.07;;
18190;SDS011;47004;51.366;12.348;2023-05-07T10:18:36;5.43;;;4.27;;
18190;SDS011;47004;51.366;12.348;2023-05-07T10:20:39;6.23;;;4.23;;
18190;SDS011;47004;51.366;12.348;2023-05-07T10:22:46;5.63;;;4.10;;
18190;SDS011;47004;51.366;12.348;2023-05-07T10:24:49;6.00;;;3.93;;
18190;SDS011;47004;51.366;12.348;2023-05-07T10:26:55;5.03;;;3.30;;
18190;SDS011;47004;51.366;12.348;2023-05-07T10:29:02;5.17;;;3.90;;
18190;SDS011;47004;51.366;12.348;2023-05-07T10:31:14;4.53;;;3.27;;
18190;SDS011;47004;51.366;12.348;2023-05-07T10:33:31;4.90;;;3.60;;
18190;SDS011;47004;51.366;12.348;2023-05-07T10:35:36;5.00;;;3.50;;
18190;SDS011;47004;51.366;12.348;2023-05-07T10:37:41;4.83;;;4.00;;
18190;SDS011;47004;51.366;12.348;2023-05-07T10:39:44;5.17;;;3.90;;
18190;SDS011;47004;51.366;12.348;2023-05-07T10:41:46;5.50;;;3.90;;
18190;SDS011;47004;51.366;12.348;2023-05-07T10:43:48;5.13;;;3.73;;
18190;SDS011;47004;51.366;12.348;2023-05-07T10:48:11;4.40;;;2.90;;
18190;SDS011;47004;51.366;12.348;2023-05-07T10:50:20;7.27;;;3.47;;
18190;SDS011;47004;51.366;12.348;2023-05-07T10:52:24;4.20;;;3.03;;
18190;SDS011;47004;51.366;12.348;2023-05-07T10:54:26;6.10;;;3.90;;
18190;SDS011;47004;51.366;12.348;2023-05-07T10:56:29;6.27;;;4.50;;
18190;SDS011;47004;51.366;12.348;2023-05-07T10:58:31;6.97;;;4.77;;
18190;SDS011;47004;51.366;12.348;2023-05-07T11:00:42;9.03;;;5.80;;
18190;SDS011;47004;51.366;12.348;2023-05-07T11:05:20;6.87;;;4.80;;
18190;SDS011;47004;51.366;12.348;2023-05-07T11:12:07;7.30;;;4.70;;
18190;SDS011;47004;51.366;12.348;2023-05-07T11:14:09;6.83;;;4.87;;
18190;SDS011;47004;51.366;12.348;2023-05-07T11:16:17;6.63;;;4.80;;
18190;SDS011;47004;51.366;12.348;2023-05-07T11:18:20;7.03;;;4.57;;
18190;SDS011;47004;51.366;12.348;2023-05-07T11:20:38;6.17;;;4.63;;
18190;SDS011;47004;51.366;12.348;2023-05-07T11:22:46;6.20;;;4.70;;
18190;SDS011;47004;51.366;12.348;2023-05-07T11:24:48;6.47;;;4.30;;
18190;SDS011;47004;51.366;12.348;2023-05-07T11:26:53;7.57;;;4.53;;
18190;SDS011;47004;51.366;12.348;2023-05-07T11:29:00;7.37;;;4.63;;
18190;SDS011;47004;51.366;12.348;2023-05-07T11:31:02;7.13;;;5.03;;
18190;SDS011;47004;51.366;12.348;2023-05-07T11:33:04;7.30;;;4.60;;
18190;SDS011;47004;51.366;12.348;2023-05-07T11:35:07;6.47;;;4.80;;
18190;SDS011;47004;51.366;12.348;2023-05-07T11:37:12;5.93;;;4.20;;
18190;SDS011;47004;51.366;12.348;2023-05-07T11:39:25;7.47;;;4.27;;
18190;SDS011;47004;51.366;12.348;2023-05-07T11:41:34;5.90;;;3.93;;
18190;SDS011;47004;51.366;12.348;2023-05-07T11:43:37;6.80;;;3.83;;
18190;SDS011;47004;51.366;12.348;2023-05-07T11:45:58;5.73;;;3.70;;
18190;SDS011;47004;51.366;12.348;2023-05-07T11:48:07;4.23;;;3.43;;
18190;SDS011;47004;51.366;12.348;2023-05-07T11:50:09;6.17;;;4.30;;
18190;SDS011;47004;51.366;12.348;2023-05-07T11:52:12;7.77;;;4.30;;
18190;SDS011;47004;51.366;12.348;2023-05-07T11:54:17;5.33;;;3.70;;
18190;SDS011;47004;51.366;12.348;2023-05-07T11:56:19;7.37;;;3.83;;
18190;SDS011;47004;51.366;12.348;2023-05-07T11:58:22;5.50;;;4.13;;
18190;SDS011;47004;51.366;12.348;2023-05-07T12:00:25;5.63;;;3.70;;
18190;SDS011;47004;51.366;12.348;2023-05-07T12:02:29;5.17;;;3.80;;
18190;SDS011;47004;51.366;12.348;2023-05-07T12:04:31;5.43;;;4.17;;
18190;SDS011;47004;51.366;12.348;2023-05-07T12:06:35;5.93;;;3.90;;
18190;SDS011;47004;51.366;12.348;2023-05-07T12:08:39;5.50;;;4.40;;
18190;SDS011;47004;51.366;12.348;2023-05-07T12:10:41;6.80;;;4.20;;
18190;SDS011;47004;51.366;12.348;2023-05-07T12:12:45;6.10;;;4.17;;
18190;SDS011;47004;51.366;12.348;2023-05-07T12:14:49;7.40;;;4.40;;